Time,TemperatureF,DewpointF,PressureIn,WindDirection,WindDirectionDegrees,WindSpeedMPH,WindSpeedGustMPH,Humidity,HourlyPrecipIn,Conditions,Clouds,dailyrainin,SoftwareType,DateUTC
2013-04-26 00:00:00,34.6,33.6,30.34,SSE,153,0.0,2.0,96,0.00,,,0.11,Wunderground v.1.15,2013-04-26 04:00:00,
2013-04-26 00:01:00,34.6,33.6,30.34,SSE,153,0.0,2.0,96,0.00,,,0.00,Wunderground v.1.15,2013-04-26 04:01:00,
2013-04-26 00:04:00,34.7,33.7,30.35,North,11,0.0,2.0,96,0.00,,,0.00,Wunderground v.1.15,2013-04-26 04:04:00,
2013-04-26 00:05:00,34.7,33.7,30.35,NW,322,0.0,2.0,96,0.00,,,0.00,Wunderground v.1.15,2013-04-26 04:05:00,
2013-04-26 00:07:00,34.7,33.7,30.35,NW,322,0.0,2.0,96,0.00,,,0.00,Wunderground v.1.15,2013-04-26 04:07:00,
2013-04-26 00:08:00,34.7,33.7,30.35,NW,322,0.0,2.0,96,0.00,,,0.00,Wunderground v.1.15,2013-04-26 04:08:00,
2013-04-26 00:13:00,34.7,33.7,30.35,SW,221,0.0,2.0,96,0.00,,,0.00,Wunderground v.1.15,2013-04-26 04:13:00,
2013-04-26 00:18:00,34.9,33.9,30.35,SSE,147,0.0,2.0,96,0.00,,,0.00,Wunderground v.1.15,2013-04-26 04:18:00,
2013-04-26 00:23:00,34.9,33.9,30.35,SSE,147,0.0,2.0,96,0.00,,,0.00,Wunderground v.1.15,2013-04-26 04:23:00,
2013-04-26 00:29:00,35.0,34.0,30.35,SSE,147,0.0,2.0,96,0.00,,,0.00,Wunderground v.1.15,2013-04-26 04:29:00,
2013-04-26 00:34:00,34.8,33.8,30.35,SSE,147,0.0,2.0,96,0.00,,,0.00,Wunderground v.1.15,2013-04-26 04:34:00,
2013-04-26 00:39:00,34.8,33.8,30.35,SE,144,0.0,2.0,96,0.00,,,0.00,Wunderground v.1.15,2013-04-26 04:39:00,
2013-04-26 00:44:00,34.6,33.6,30.35,SE,144,0.0,2.0,96,0.00,,,0.00,Wunderground v.1.15,2013-04-26 04:44:00,
2013-04-26 00:50:00,34.4,33.4,30.35,SE,144,0.0,2.0,96,0.00,,,0.00,Wunderground v.1.15,2013-04-26 04:50:00,
2013-04-26 00:55:00,34.2,33.2,30.35,SE,145,0.0,2.0,96,0.00,,,0.00,Wunderground v.1.15,2013-04-26 04:55:00,
2013-04-26 01:00:00,34.0,33.0,30.35,SE,144,0.0,2.0,96,0.00,,,0.00,Wunderground v.1.15,2013-04-26 05:00:00,
2013-04-26 01:05:00,33.9,32.9,30.35,SE,145,0.0,2.0,96,0.00,,,0.00,Wunderground v.1.15,2013-04-26 05:05:00,
2013-04-26 01:10:00,33.5,32.5,30.36,SE,144,0.0,2.0,96,0.00,,,0.00,Wunderground v.1.15,2013-04-26 05:10:00,
2013-04-26 01:16:00,33.2,32.2,30.36,SE,143,0.0,2.0,96,0.00,,,0.00,Wunderground v.1.15,2013-04-26 05:16:00,
2013-04-26 01:21:00,33.2,32.2,30.36,SE,145,0.0,2.0,96,0.00,,,0.00,Wunderground v.1.15,2013-04-26 05:21:00,
2013-04-26 01:26:00,33.2,32.2,30.37,SE,146,0.0,2.0,96,0.00,,,0.00,Wunderground v.1.15,2013-04-26 05:26:00,
2013-04-26 01:32:00,32.9,31.9,30.37,SE,145,0.0,2.0,96,0.00,,,0.00,Wunderground v.1.15,2013-04-26 05:32:00,
2013-04-26 01:37:00,32.8,31.8,30.37,SE,145,0.0,2.0,96,0.00,,,0.00,Wunderground v.1.15,2013-04-26 05:37:00,
2013-04-26 01:42:00,32.7,31.7,30.37,SE,146,0.0,2.0,96,0.00,,,0.00,Wunderground v.1.15,2013-04-26 05:42:00,
2013-04-26 01:47:00,32.4,31.4,30.36,SE,145,0.0,2.0,96,0.00,,,0.00,Wunderground v.1.15,2013-04-26 05:47:00,
2013-04-26 01:52:00,32.1,31.1,30.37,SE,146,0.0,2.0,96,0.00,,,0.00,Wunderground v.1.15,2013-04-26 05:52:00,
2013-04-26 01:58:00,32.0,31.0,30.37,SE,145,0.0,2.0,96,0.00,,,0.00,Wunderground v.1.15,2013-04-26 05:58:00,
2013-04-26 02:03:00,31.8,30.8,30.37,SE,145,0.0,2.0,96,0.00,,,0.00,Wunderground v.1.15,2013-04-26 06:03:00,
2013-04-26 02:09:00,31.4,30.4,30.37,SE,145,0.0,2.0,96,0.00,,,0.00,Wunderground v.1.15,2013-04-26 06:09:00,
2013-04-26 02:14:00,31.4,30.4,30.37,SE,145,0.0,2.0,96,0.00,,,0.00,Wunderground v.1.15,2013-04-26 06:14:00,
2013-04-26 02:19:00,31.4,30.6,30.37,SE,145,0.0,2.0,97,0.00,,,0.00,Wunderground v.1.15,2013-04-26 06:19:00,
2013-04-26 02:24:00,31.3,30.5,30.37,SE,145,0.0,2.0,97,0.00,,,0.00,Wunderground v.1.15,2013-04-26 06:24:00,
2013-04-26 02:30:00,31.2,30.4,30.37,SE,145,0.0,2.0,97,0.00,,,0.00,Wunderground v.1.15,2013-04-26 06:30:00,
2013-04-26 02:35:00,31.3,30.5,30.37,SE,145,0.0,2.0,97,0.00,,,0.00,Wunderground v.1.15,2013-04-26 06:35:00,
2013-04-26 02:40:00,31.4,30.6,30.37,SE,141,0.0,2.0,97,0.00,,,0.00,Wunderground v.1.15,2013-04-26 06:40:00,
2013-04-26 02:45:00,31.6,30.8,30.37,SE,139,0.0,2.0,97,0.00,,,0.00,Wunderground v.1.15,2013-04-26 06:45:00,
2013-04-26 02:51:00,31.7,30.9,30.37,SE,142,0.0,2.0,97,0.00,,,0.00,Wunderground v.1.15,2013-04-26 06:51:00,
2013-04-26 02:56:00,31.7,30.9,30.38,SE,142,0.0,2.0,97,0.00,,,0.00,Wunderground v.1.15,2013-04-26 06:56:00,
2013-04-26 03:01:00,31.7,30.9,30.38,SE,142,0.0,2.0,97,0.00,,,0.00,Wunderground v.1.15,2013-04-26 07:01:00,
2013-04-26 03:07:00,31.7,30.9,30.38,SE,143,0.0,2.0,97,0.00,,,0.00,Wunderground v.1.15,2013-04-26 07:07:00,
2013-04-26 03:12:00,31.6,30.8,30.38,SE,142,0.0,2.0,97,0.00,,,0.00,Wunderground v.1.15,2013-04-26 07:12:00,
2013-04-26 03:17:00,31.5,30.7,30.38,SE,142,0.0,2.0,97,0.00,,,0.00,Wunderground v.1.15,2013-04-26 07:17:00,
2013-04-26 03:22:00,31.4,30.4,30.38,SE,143,0.0,2.0,96,0.00,,,0.00,Wunderground v.1.15,2013-04-26 07:22:00,
2013-04-26 03:28:00,31.4,30.6,30.38,SE,142,0.0,2.0,97,0.00,,,0.00,Wunderground v.1.15,2013-04-26 07:28:00,
2013-04-26 03:33:00,31.4,30.6,30.38,SE,139,0.0,2.0,97,0.00,,,0.00,Wunderground v.1.15,2013-04-26 07:33:00,
2013-04-26 03:38:00,31.5,30.7,30.38,SE,139,0.0,2.0,97,0.00,,,0.00,Wunderground v.1.15,2013-04-26 07:38:00,
2013-04-26 03:44:00,31.5,30.7,30.39,SE,139,0.0,2.0,97,0.00,,,0.00,Wunderground v.1.15,2013-04-26 07:44:00,
2013-04-26 03:49:00,31.4,30.6,30.39,SE,139,0.0,2.0,97,0.00,,,0.00,Wunderground v.1.15,2013-04-26 07:49:00,
2013-04-26 03:54:00,31.4,30.6,30.39,SE,139,0.0,2.0,97,0.00,,,0.00,Wunderground v.1.15,2013-04-26 07:54:00,
2013-04-26 04:00:00,31.4,30.6,30.40,SE,139,0.0,2.0,97,0.00,,,0.00,Wunderground v.1.15,2013-04-26 08:00:00,
2013-04-26 04:05:00,31.4,30.6,30.40,SE,139,0.0,2.0,97,0.00,,,0.00,Wunderground v.1.15,2013-04-26 08:05:00,
2013-04-26 04:10:00,31.2,30.2,30.40,SE,140,0.0,2.0,96,0.00,,,0.00,Wunderground v.1.15,2013-04-26 08:10:00,
2013-04-26 04:15:00,30.9,29.9,30.40,SE,139,0.0,2.0,96,0.00,,,0.00,Wunderground v.1.15,2013-04-26 08:15:00,
2013-04-26 04:20:00,30.8,29.8,30.40,SE,140,0.0,2.0,96,0.00,,,0.00,Wunderground v.1.15,2013-04-26 08:20:00,
2013-04-26 04:26:00,30.8,29.8,30.40,SE,139,0.0,2.0,96,0.00,,,0.00,Wunderground v.1.15,2013-04-26 08:26:00,
2013-04-26 04:31:00,30.8,30.0,30.40,SE,124,0.0,2.0,97,0.00,,,0.00,Wunderground v.1.15,2013-04-26 08:31:00,
2013-04-26 04:36:00,30.6,29.6,30.40,SE,124,0.0,2.0,96,0.00,,,0.00,Wunderground v.1.15,2013-04-26 08:36:00,
2013-04-26 04:42:00,30.7,30.0,30.40,East,101,0.0,2.0,97,0.00,,,0.00,Wunderground v.1.15,2013-04-26 08:42:00,
2013-04-26 04:47:00,30.7,30.0,30.41,ESE,102,0.0,2.0,97,0.00,,,0.00,Wunderground v.1.15,2013-04-26 08:47:00,
2013-04-26 04:52:00,30.7,30.0,30.41,East,101,0.0,2.0,97,0.00,,,0.00,Wunderground v.1.15,2013-04-26 08:52:00,
2013-04-26 04:57:00,30.5,29.5,30.40,ESE,102,0.0,2.0,96,0.00,,,0.00,Wunderground v.1.15,2013-04-26 08:57:00,
2013-04-26 05:03:00,30.5,29.8,30.41,ESE,102,0.0,2.0,97,0.00,,,0.00,Wunderground v.1.15,2013-04-26 09:03:00,
2013-04-26 05:09:00,30.6,29.9,30.41,East,101,0.0,2.0,97,0.00,,,0.00,Wunderground v.1.15,2013-04-26 09:09:00,
2013-04-26 05:14:00,30.6,29.9,30.41,ESE,102,0.0,2.0,97,0.00,,,0.00,Wunderground v.1.15,2013-04-26 09:14:00,
2013-04-26 05:19:00,30.5,29.8,30.41,ESE,102,0.0,2.0,97,0.00,,,0.00,Wunderground v.1.15,2013-04-26 09:19:00,
2013-04-26 05:25:00,30.6,29.9,30.40,East,101,0.0,2.0,97,0.00,,,0.00,Wunderground v.1.15,2013-04-26 09:25:00,
2013-04-26 05:30:00,30.3,29.6,30.41,ESE,113,0.0,2.0,97,0.00,,,0.00,Wunderground v.1.15,2013-04-26 09:30:00,
2013-04-26 05:35:00,30.2,29.5,30.41,ESE,113,0.0,2.0,97,0.00,,,0.00,Wunderground v.1.15,2013-04-26 09:35:00,
2013-04-26 05:40:00,30.3,29.6,30.41,ESE,113,0.0,2.0,97,0.00,,,0.00,Wunderground v.1.15,2013-04-26 09:40:00,
2013-04-26 05:46:00,30.3,29.6,30.41,ESE,113,0.0,2.0,97,0.00,,,0.00,Wunderground v.1.15,2013-04-26 09:46:00,
2013-04-26 05:51:00,30.2,29.5,30.41,ESE,113,0.0,2.0,97,0.00,,,0.00,Wunderground v.1.15,2013-04-26 09:51:00,
2013-04-26 05:56:00,30.3,29.6,30.41,ESE,113,0.0,2.0,97,0.00,,,0.00,Wunderground v.1.15,2013-04-26 09:56:00,
2013-04-26 06:01:00,30.2,29.5,30.42,ESE,113,0.0,2.0,97,0.00,,,0.00,Wunderground v.1.15,2013-04-26 10:01:00,
2013-04-26 06:07:00,30.2,29.5,30.42,ESE,113,0.0,2.0,97,0.00,,,0.00,Wunderground v.1.15,2013-04-26 10:07:00,
2013-04-26 06:12:00,30.2,29.5,30.42,ESE,113,0.0,2.0,97,0.00,,,0.00,Wunderground v.1.15,2013-04-26 10:12:00,
2013-04-26 06:17:00,30.0,29.3,30.42,ESE,113,0.0,2.0,97,0.00,,,0.00,Wunderground v.1.15,2013-04-26 10:17:00,
2013-04-26 06:22:00,29.9,29.2,30.42,ESE,113,0.0,2.0,97,0.00,,,0.00,Wunderground v.1.15,2013-04-26 10:22:00,
2013-04-26 06:28:00,29.7,29.0,30.42,ESE,110,0.0,2.0,97,0.00,,,0.00,Wunderground v.1.15,2013-04-26 10:28:00,
2013-04-26 06:33:00,29.7,29.0,30.43,ESE,111,0.0,2.0,97,0.00,,,0.00,Wunderground v.1.15,2013-04-26 10:33:00,
2013-04-26 06:38:00,29.8,29.1,30.43,SW,225,0.0,2.0,97,0.00,,,0.00,Wunderground v.1.15,2013-04-26 10:38:00,
2013-04-26 06:43:00,29.7,29.0,30.43,ESE,108,0.0,2.0,97,0.00,,,0.00,Wunderground v.1.15,2013-04-26 10:43:00,
2013-04-26 06:49:00,29.8,29.1,30.43,ESE,110,0.0,2.0,97,0.00,,,0.00,Wunderground v.1.15,2013-04-26 10:49:00,
2013-04-26 06:54:00,29.8,29.1,30.43,ESE,110,0.0,2.0,97,0.00,,,0.00,Wunderground v.1.15,2013-04-26 10:54:00,
2013-04-26 06:59:00,30.0,29.3,30.44,ESE,110,0.0,2.0,97,0.00,,,0.00,Wunderground v.1.15,2013-04-26 10:59:00,
2013-04-26 07:04:00,29.7,29.0,30.44,East,94,0.0,2.0,97,0.00,,,0.00,Wunderground v.1.15,2013-04-26 11:04:00,
2013-04-26 07:10:00,29.7,29.0,30.44,East,96,0.0,2.0,97,0.00,,,0.00,Wunderground v.1.15,2013-04-26 11:10:00,
2013-04-26 07:15:00,29.8,29.1,30.44,East,96,0.0,2.0,97,0.00,,,0.00,Wunderground v.1.15,2013-04-26 11:15:00,
2013-04-26 07:20:00,29.7,29.0,30.45,East,96,0.0,2.0,97,0.00,,,0.00,Wunderground v.1.15,2013-04-26 11:20:00,
2013-04-26 07:25:00,29.6,28.9,30.45,East,89,0.0,2.0,97,0.00,,,0.00,Wunderground v.1.15,2013-04-26 11:25:00,
2013-04-26 07:31:00,29.9,29.2,30.45,East,91,0.0,2.0,97,0.00,,,0.00,Wunderground v.1.15,2013-04-26 11:31:00,
2013-04-26 07:36:00,30.2,29.5,30.45,East,91,0.0,2.0,97,0.00,,,0.00,Wunderground v.1.15,2013-04-26 11:36:00,
2013-04-26 07:41:00,30.5,29.8,30.45,East,91,0.0,2.0,97,0.00,,,0.00,Wunderground v.1.15,2013-04-26 11:41:00,
2013-04-26 07:46:00,30.6,29.9,30.45,ESE,111,0.0,2.0,97,0.00,,,0.00,Wunderground v.1.15,2013-04-26 11:46:00,
2013-04-26 07:52:00,30.5,29.8,30.46,ESE,105,0.0,2.0,97,0.00,,,0.00,Wunderground v.1.15,2013-04-26 11:52:00,
2013-04-26 07:57:00,30.7,30.0,30.46,ESE,105,0.0,2.0,97,0.00,,,0.00,Wunderground v.1.15,2013-04-26 11:57:00,
2013-04-26 08:02:00,31.1,30.3,30.46,ESE,104,0.0,2.0,97,0.00,,,0.00,Wunderground v.1.15,2013-04-26 12:02:00,
2013-04-26 08:08:00,31.6,30.8,30.46,ESE,102,0.0,2.0,97,0.00,,,0.00,Wunderground v.1.15,2013-04-26 12:08:00,
2013-04-26 08:13:00,31.4,30.6,30.46,East,91,0.0,2.0,97,0.00,,,0.00,Wunderground v.1.15,2013-04-26 12:13:00,
2013-04-26 08:18:00,31.9,31.1,30.47,East,91,0.0,2.0,97,0.00,,,0.00,Wunderground v.1.15,2013-04-26 12:18:00,
2013-04-26 08:24:00,32.0,31.2,30.47,NE,56,0.0,2.0,97,0.00,,,0.00,Wunderground v.1.15,2013-04-26 12:24:00,
2013-04-26 08:29:00,32.1,31.3,30.47,ENE,75,0.0,2.0,97,0.00,,,0.00,Wunderground v.1.15,2013-04-26 12:29:00,
2013-04-26 08:34:00,32.4,31.6,30.47,ENE,75,0.0,2.0,97,0.00,,,0.00,Wunderground v.1.15,2013-04-26 12:34:00,
2013-04-26 08:39:00,33.0,32.2,30.47,East,91,0.0,2.0,97,0.00,,,0.00,Wunderground v.1.15,2013-04-26 12:39:00,
2013-04-26 08:45:00,33.1,32.3,30.47,East,98,1.0,2.0,97,0.00,,,0.00,Wunderground v.1.15,2013-04-26 12:45:00,
2013-04-26 08:50:00,33.7,32.9,30.48,SE,126,0.0,2.0,97,0.00,,,0.00,Wunderground v.1.15,2013-04-26 12:50:00,
2013-04-26 08:55:00,34.3,33.5,30.48,East,91,0.0,2.0,97,0.00,,,0.00,Wunderground v.1.15,2013-04-26 12:55:00,
2013-04-26 09:01:00,35.7,35.2,30.48,East,91,0.0,2.0,98,0.00,,,0.00,Wunderground v.1.15,2013-04-26 13:01:00,
2013-04-26 09:06:00,36.5,36.0,30.49,East,94,0.0,2.0,98,0.00,,,0.00,Wunderground v.1.15,2013-04-26 13:06:00,
2013-04-26 09:11:00,36.5,35.7,30.49,SSW,197,0.0,2.0,97,0.00,,,0.00,Wunderground v.1.15,2013-04-26 13:11:00,
2013-04-26 09:16:00,36.8,36.0,30.48,East,98,0.0,2.0,97,0.00,,,0.00,Wunderground v.1.15,2013-04-26 13:16:00,
2013-04-26 09:21:00,38.2,37.7,30.48,East,101,0.0,0.0,98,0.00,,,0.00,Wunderground v.1.15,2013-04-26 13:21:00,
2013-04-26 09:27:00,39.5,39.0,30.48,East,99,0.0,2.0,98,0.00,,,0.00,Wunderground v.1.15,2013-04-26 13:27:00,
2013-04-26 09:32:00,40.0,39.5,30.48,East,89,0.0,1.0,98,0.00,,,0.00,Wunderground v.1.15,2013-04-26 13:32:00,
2013-04-26 09:38:00,40.1,39.3,30.48,East,95,1.0,2.0,97,0.00,,,0.00,Wunderground v.1.15,2013-04-26 13:38:00,
2013-04-26 09:43:00,40.4,39.6,30.48,NE,56,1.0,1.0,97,0.00,,,0.00,Wunderground v.1.15,2013-04-26 13:43:00,
2013-04-26 09:48:00,41.6,40.8,30.48,SW,232,1.0,1.0,97,0.00,,,0.00,Wunderground v.1.15,2013-04-26 13:48:00,
2013-04-26 09:53:00,42.1,41.3,30.48,ESE,118,0.0,1.0,97,0.00,,,0.00,Wunderground v.1.15,2013-04-26 13:53:00,
2013-04-26 09:58:00,43.2,42.1,30.48,ESE,121,1.0,1.0,96,0.00,,,0.00,Wunderground v.1.15,2013-04-26 13:58:00,
2013-04-26 10:03:00,43.9,41.4,30.48,East,98,1.0,3.0,91,0.00,,,0.00,Wunderground v.1.15,2013-04-26 14:03:00,
2013-04-26 10:08:00,44.5,40.6,30.48,East,98,1.0,3.0,86,0.00,,,0.00,Wunderground v.1.15,2013-04-26 14:08:00,
2013-04-26 10:13:00,45.0,40.8,30.48,SSW,210,1.0,2.0,85,0.00,,,0.00,Wunderground v.1.15,2013-04-26 14:13:00,
2013-04-26 10:18:00,46.1,39.9,30.48,WSW,238,1.0,2.0,79,0.00,,,0.00,Wunderground v.1.15,2013-04-26 14:18:00,
2013-04-26 10:24:00,47.4,39.9,30.48,SE,128,0.0,2.0,75,0.00,,,0.00,Wunderground v.1.15,2013-04-26 14:24:00,
2013-04-26 10:29:00,48.1,34.0,30.48,ENE,57,1.0,3.0,58,0.00,,,0.00,Wunderground v.1.15,2013-04-26 14:29:00,
2013-04-26 10:34:00,47.1,31.3,30.49,East,98,1.0,3.0,54,0.00,,,0.00,Wunderground v.1.15,2013-04-26 14:34:00,
2013-04-26 10:39:00,46.9,29.7,30.49,WSW,245,2.0,3.0,51,0.00,,,0.00,Wunderground v.1.15,2013-04-26 14:39:00,
2013-04-26 10:44:00,46.5,29.3,30.49,WSW,238,2.0,2.0,51,0.00,,,0.00,Wunderground v.1.15,2013-04-26 14:44:00,
2013-04-26 10:50:00,47.7,32.3,30.49,ESE,103,1.0,3.0,55,0.00,,,0.00,Wunderground v.1.15,2013-04-26 14:50:00,
2013-04-26 10:55:00,48.3,31.9,30.49,ENE,71,1.0,3.0,53,0.00,,,0.00,Wunderground v.1.15,2013-04-26 14:55:00,
2013-04-26 11:00:00,48.0,31.7,30.49,ESE,117,1.0,1.0,53,0.00,,,0.00,Wunderground v.1.15,2013-04-26 15:00:00,
2013-04-26 11:05:00,48.3,30.5,30.49,ENE,63,1.0,5.0,50,0.00,,,0.00,Wunderground v.1.15,2013-04-26 15:05:00,
2013-04-26 11:10:00,48.0,31.7,30.49,ENE,63,2.0,3.0,53,0.00,,,0.00,Wunderground v.1.15,2013-04-26 15:10:00,
2013-04-26 11:15:00,48.4,31.6,30.49,East,94,2.0,4.0,52,0.00,,,0.00,Wunderground v.1.15,2013-04-26 15:15:00,
2013-04-26 11:20:00,48.5,31.2,30.49,NW,315,1.0,1.0,51,0.00,,,0.00,Wunderground v.1.15,2013-04-26 15:20:00,
2013-04-26 11:25:00,48.9,31.5,30.49,ESE,110,1.0,2.0,51,0.00,,,0.00,Wunderground v.1.15,2013-04-26 15:25:00,
2013-04-26 11:30:00,49.7,31.3,30.49,NE,51,1.0,1.0,49,0.00,,,0.00,Wunderground v.1.15,2013-04-26 15:30:00,
2013-04-26 11:35:00,50.6,32.6,30.49,West,278,1.0,3.0,50,0.00,,,0.00,Wunderground v.1.15,2013-04-26 15:35:00,
2013-04-26 11:41:00,51.7,32.6,30.49,SW,236,1.0,4.0,48,0.00,,,0.00,Wunderground v.1.15,2013-04-26 15:41:00,
2013-04-26 11:46:00,51.9,31.7,30.48,SW,224,1.0,4.0,46,0.00,,,0.00,Wunderground v.1.15,2013-04-26 15:46:00,
2013-04-26 11:51:00,52.1,30.8,30.49,ESE,102,1.0,2.0,44,0.00,,,0.00,Wunderground v.1.15,2013-04-26 15:51:00,
2013-04-26 11:56:00,51.4,30.7,30.49,ENE,58,1.0,5.0,45,0.00,,,0.00,Wunderground v.1.15,2013-04-26 15:56:00,
2013-04-26 12:01:00,51.6,35.0,30.49,NE,42,1.0,2.0,53,0.00,,,0.00,Wunderground v.1.15,2013-04-26 16:01:00,
2013-04-26 12:06:00,51.6,33.0,30.49,ENE,67,2.0,2.0,49,0.00,,,0.00,Wunderground v.1.15,2013-04-26 16:06:00,
2013-04-26 12:11:00,51.0,32.0,30.49,NNE,13,2.0,3.0,48,0.00,,,0.00,Wunderground v.1.15,2013-04-26 16:11:00,
2013-04-26 12:16:00,50.6,30.0,30.49,NE,41,2.0,3.0,45,0.00,,,0.00,Wunderground v.1.15,2013-04-26 16:16:00,
2013-04-26 12:22:00,50.4,31.4,30.49,East,100,2.0,3.0,48,0.00,,,0.00,Wunderground v.1.15,2013-04-26 16:22:00,
2013-04-26 12:27:00,50.3,31.3,30.48,North,4,2.0,4.0,48,0.00,,,0.00,Wunderground v.1.15,2013-04-26 16:27:00,
2013-04-26 12:32:00,50.5,31.5,30.49,ENE,69,2.0,3.0,48,0.00,,,0.00,Wunderground v.1.15,2013-04-26 16:32:00,
2013-04-26 12:37:00,49.7,31.8,30.48,WNW,295,1.0,3.0,50,0.00,,,0.00,Wunderground v.1.15,2013-04-26 16:37:00,
2013-04-26 12:42:00,50.2,30.7,30.48,WSW,243,1.0,3.0,47,0.00,,,0.00,Wunderground v.1.15,2013-04-26 16:42:00,
2013-04-26 12:47:00,50.1,29.6,30.48,WSW,239,1.0,3.0,45,0.00,,,0.00,Wunderground v.1.15,2013-04-26 16:47:00,
2013-04-26 12:53:00,50.0,30.0,30.48,West,280,1.0,3.0,46,0.00,,,0.00,Wunderground v.1.15,2013-04-26 16:53:00,
2013-04-26 12:58:00,50.7,32.2,30.47,NNW,340,1.0,3.0,49,0.00,,,0.00,Wunderground v.1.15,2013-04-26 16:58:00,
2013-04-26 13:03:00,51.4,30.2,30.47,North,9,1.0,3.0,44,0.00,,,0.00,Wunderground v.1.15,2013-04-26 17:03:00,
2013-04-26 13:08:00,51.4,30.7,30.47,WNW,300,2.0,5.0,45,0.00,,,0.00,Wunderground v.1.15,2013-04-26 17:08:00,
2013-04-26 13:13:00,51.2,30.0,30.47,WSW,245,2.0,3.0,44,0.00,,,0.00,Wunderground v.1.15,2013-04-26 17:13:00,
2013-04-26 13:18:00,51.2,30.0,30.47,East,87,2.0,6.0,44,0.00,,,0.00,Wunderground v.1.15,2013-04-26 17:18:00,
2013-04-26 13:23:00,50.9,29.7,30.46,NNE,25,4.0,6.0,44,0.00,,,0.00,Wunderground v.1.15,2013-04-26 17:23:00,
2013-04-26 13:29:00,50.8,29.1,30.46,NW,323,4.0,6.0,43,0.00,,,0.00,Wunderground v.1.15,2013-04-26 17:29:00,
2013-04-26 13:34:00,50.5,29.9,30.47,West,281,2.0,4.0,45,0.00,,,0.00,Wunderground v.1.15,2013-04-26 17:34:00,
2013-04-26 13:39:00,50.5,31.0,30.47,NW,310,1.0,4.0,47,0.00,,,0.00,Wunderground v.1.15,2013-04-26 17:39:00,
2013-04-26 13:44:00,51.5,32.4,30.46,SSW,210,1.0,3.0,48,0.00,,,0.00,Wunderground v.1.15,2013-04-26 17:44:00,
2013-04-26 13:49:00,51.9,30.1,30.46,NW,305,1.0,3.0,43,0.00,,,0.00,Wunderground v.1.15,2013-04-26 17:49:00,
2013-04-26 13:54:00,52.5,31.8,30.46,NNE,20,1.0,2.0,45,0.00,,,0.00,Wunderground v.1.15,2013-04-26 17:54:00,
2013-04-26 13:59:00,53.6,31.0,30.46,SW,221,1.0,2.0,42,0.00,,,0.00,Wunderground v.1.15,2013-04-26 17:59:00,
2013-04-26 14:05:00,54.6,32.5,30.46,WSW,252,1.0,2.0,43,0.00,,,0.00,Wunderground v.1.15,2013-04-26 18:05:00,
2013-04-26 14:10:00,54.9,31.0,30.46,ESE,120,1.0,3.0,40,0.00,,,0.00,Wunderground v.1.15,2013-04-26 18:10:00,
2013-04-26 14:15:00,55.3,28.8,30.46,West,264,2.0,3.0,36,0.00,,,0.00,Wunderground v.1.15,2013-04-26 18:15:00,
2013-04-26 14:20:00,54.3,29.8,30.46,NE,54,2.0,2.0,39,0.00,,,0.00,Wunderground v.1.15,2013-04-26 18:20:00,
2013-04-26 14:25:00,54.9,33.9,30.46,SW,234,2.0,3.0,45,0.00,,,0.00,Wunderground v.1.15,2013-04-26 18:25:00,
2013-04-26 14:30:00,55.0,32.3,30.46,WSW,246,1.0,2.0,42,0.00,,,0.00,Wunderground v.1.15,2013-04-26 18:30:00,
2013-04-26 14:35:00,55.4,30.2,30.46,SW,236,2.0,5.0,38,0.00,,,0.00,Wunderground v.1.15,2013-04-26 18:35:00,
2013-04-26 14:41:00,55.9,31.3,30.46,ESE,108,2.0,2.0,39,0.00,,,0.00,Wunderground v.1.15,2013-04-26 18:41:00,
2013-04-26 14:46:00,56.8,30.1,30.46,SW,229,1.0,3.0,36,0.00,,,0.00,Wunderground v.1.15,2013-04-26 18:46:00,
2013-04-26 14:51:00,57.1,28.2,30.45,WSW,242,1.0,5.0,33,0.00,,,0.00,Wunderground v.1.15,2013-04-26 18:51:00,
2013-04-26 14:56:00,56.8,30.1,30.45,SW,233,1.0,5.0,36,0.00,,,0.00,Wunderground v.1.15,2013-04-26 18:56:00,
2013-04-26 15:01:00,56.2,31.5,30.45,WSW,242,2.0,3.0,39,0.00,,,0.00,Wunderground v.1.15,2013-04-26 19:01:00,
2013-04-26 15:06:00,56.2,29.6,30.45,SW,226,3.0,4.0,36,0.00,,,0.00,Wunderground v.1.15,2013-04-26 19:06:00,
2013-04-26 15:12:00,56.3,29.0,30.45,SW,217,2.0,2.0,35,0.00,,,0.00,Wunderground v.1.15,2013-04-26 19:12:00,
2013-04-26 15:17:00,56.3,29.0,30.45,NNE,23,1.0,3.0,35,0.00,,,0.00,Wunderground v.1.15,2013-04-26 19:17:00,
2013-04-26 15:22:00,55.2,29.4,30.45,North,354,2.0,4.0,37,0.00,,,0.00,Wunderground v.1.15,2013-04-26 19:22:00,
2013-04-26 15:27:00,54.6,29.5,30.44,NNW,333,3.0,5.0,38,0.00,,,0.00,Wunderground v.1.15,2013-04-26 19:27:00,
2013-04-26 15:32:00,54.5,30.6,30.44,WNW,290,3.0,3.0,40,0.00,,,0.00,Wunderground v.1.15,2013-04-26 19:32:00,
2013-04-26 15:37:00,54.6,30.7,30.44,SSW,209,2.0,3.0,40,0.00,,,0.00,Wunderground v.1.15,2013-04-26 19:37:00,
2013-04-26 15:42:00,54.8,30.9,30.44,WSW,250,2.0,3.0,40,0.00,,,0.00,Wunderground v.1.15,2013-04-26 19:42:00,
2013-04-26 15:47:00,54.6,33.1,30.44,WNW,300,2.0,3.0,44,0.00,,,0.00,Wunderground v.1.15,2013-04-26 19:47:00,
2013-04-26 15:53:00,54.4,35.1,30.44,WSW,249,3.0,4.0,48,0.00,,,0.00,Wunderground v.1.15,2013-04-26 19:53:00,
2013-04-26 15:58:00,55.1,32.4,30.43,South,184,3.0,4.0,42,0.00,,,0.00,Wunderground v.1.15,2013-04-26 19:58:00,
2013-04-26 16:03:00,55.5,33.3,30.43,WSW,245,2.0,3.0,43,0.00,,,0.00,Wunderground v.1.15,2013-04-26 20:03:00,
2013-04-26 16:08:00,54.8,33.8,30.43,WNW,293,2.0,4.0,45,0.00,,,0.00,Wunderground v.1.15,2013-04-26 20:08:00,
2013-04-26 16:13:00,54.2,31.0,30.43,NNW,347,3.0,4.0,41,0.00,,,0.00,Wunderground v.1.15,2013-04-26 20:13:00,
2013-04-26 16:18:00,54.1,32.6,30.43,NNE,20,2.0,4.0,44,0.00,,,0.00,Wunderground v.1.15,2013-04-26 20:18:00,
2013-04-26 16:24:00,54.6,31.3,30.42,NNW,333,2.0,4.0,41,0.00,,,0.00,Wunderground v.1.15,2013-04-26 20:24:00,
2013-04-26 16:29:00,54.6,31.9,30.42,NW,305,2.0,4.0,42,0.00,,,0.00,Wunderground v.1.15,2013-04-26 20:29:00,
2013-04-26 16:34:00,55.0,31.1,30.42,West,274,2.0,3.0,40,0.00,,,0.00,Wunderground v.1.15,2013-04-26 20:34:00,
2013-04-26 16:39:00,55.2,31.9,30.42,SE,140,1.0,4.0,41,0.00,,,0.00,Wunderground v.1.15,2013-04-26 20:39:00,
2013-04-26 16:44:00,56.4,31.7,30.41,West,270,1.0,2.0,39,0.00,,,0.00,Wunderground v.1.15,2013-04-26 20:44:00,
2013-04-26 16:50:00,56.1,32.1,30.41,SW,228,1.0,1.0,40,0.00,,,0.00,Wunderground v.1.15,2013-04-26 20:50:00,
2013-04-26 16:55:00,56.1,32.1,30.41,NNE,27,1.0,4.0,40,0.00,,,0.00,Wunderground v.1.15,2013-04-26 20:55:00,
2013-04-26 17:00:00,55.7,32.3,30.41,West,260,2.0,2.0,41,0.00,,,0.00,Wunderground v.1.15,2013-04-26 21:00:00,
2013-04-26 17:05:00,55.7,33.5,30.40,NW,317,1.0,2.0,43,0.00,,,0.00,Wunderground v.1.15,2013-04-26 21:05:00,
2013-04-26 17:10:00,55.4,32.1,30.40,West,270,2.0,4.0,41,0.00,,,0.00,Wunderground v.1.15,2013-04-26 21:10:00,
2013-04-26 17:15:00,55.3,31.4,30.40,SW,225,1.0,4.0,40,0.00,,,0.00,Wunderground v.1.15,2013-04-26 21:15:00,
2013-04-26 17:20:00,55.5,30.9,30.40,NNW,337,1.0,2.0,39,0.00,,,0.00,Wunderground v.1.15,2013-04-26 21:20:00,
2013-04-26 17:26:00,55.7,32.3,30.40,ENE,63,1.0,4.0,41,0.00,,,0.00,Wunderground v.1.15,2013-04-26 21:26:00,
2013-04-26 17:31:00,55.1,29.9,30.40,NW,305,2.0,2.0,38,0.00,,,0.00,Wunderground v.1.15,2013-04-26 21:31:00,
2013-04-26 17:36:00,55.6,31.0,30.39,West,260,2.0,3.0,39,0.00,,,0.00,Wunderground v.1.15,2013-04-26 21:36:00,
2013-04-26 17:42:00,56.9,30.2,30.39,SW,219,1.0,3.0,36,0.00,,,0.00,Wunderground v.1.15,2013-04-26 21:42:00,
2013-04-26 17:48:00,57.0,28.1,30.39,West,266,2.0,3.0,33,0.00,,,0.00,Wunderground v.1.15,2013-04-26 21:48:00,
2013-04-26 17:53:00,57.3,28.4,30.39,SW,229,2.0,4.0,33,0.00,,,0.00,Wunderground v.1.15,2013-04-26 21:53:00,
2013-04-26 17:58:00,58.0,29.0,30.40,SW,232,2.0,4.0,33,0.00,,,0.00,Wunderground v.1.15,2013-04-26 21:58:00,
2013-04-26 18:03:00,58.3,31.4,30.40,WSW,248,1.0,3.0,36,0.00,,,0.00,Wunderground v.1.15,2013-04-26 22:03:00,
2013-04-26 18:08:00,57.8,28.9,30.40,SW,235,2.0,3.0,33,0.00,,,0.00,Wunderground v.1.15,2013-04-26 22:08:00,
2013-04-26 18:13:00,57.7,28.8,30.40,West,269,1.0,2.0,33,0.00,,,0.00,Wunderground v.1.15,2013-04-26 22:13:00,
2013-04-26 18:19:00,57.6,28.7,30.40,South,191,1.0,2.0,33,0.00,,,0.00,Wunderground v.1.15,2013-04-26 22:19:00,
2013-04-26 18:24:00,58.2,30.7,30.40,SW,232,1.0,2.0,35,0.00,,,0.00,Wunderground v.1.15,2013-04-26 22:24:00,
2013-04-26 18:29:00,58.2,29.2,30.40,WSW,246,1.0,2.0,33,0.00,,,0.00,Wunderground v.1.15,2013-04-26 22:29:00,
2013-04-26 18:34:00,57.4,28.5,30.39,WSW,242,1.0,4.0,33,0.00,,,0.00,Wunderground v.1.15,2013-04-26 22:34:00,
2013-04-26 18:39:00,56.7,28.6,30.40,South,181,2.0,4.0,34,0.00,,,0.00,Wunderground v.1.15,2013-04-26 22:39:00,
2013-04-26 18:45:00,56.6,29.9,30.40,East,83,1.0,2.0,36,0.00,,,0.00,Wunderground v.1.15,2013-04-26 22:45:00,
2013-04-26 18:50:00,56.4,28.3,30.40,SW,233,0.0,2.0,34,0.00,,,0.00,Wunderground v.1.15,2013-04-26 22:50:00,
2013-04-26 18:55:00,55.5,26.8,30.40,WNW,283,1.0,2.0,33,0.00,,,0.00,Wunderground v.1.15,2013-04-26 22:55:00,
2013-04-26 19:00:00,55.1,27.2,30.39,WNW,283,0.0,2.0,34,0.00,,,0.00,Wunderground v.1.15,2013-04-26 23:00:00,
2013-04-26 19:05:00,54.7,27.6,30.39,WNW,283,0.0,2.0,35,0.00,,,0.00,Wunderground v.1.15,2013-04-26 23:05:00,
2013-04-26 19:11:00,54.1,30.9,30.40,West,265,1.0,2.0,41,0.00,,,0.00,Wunderground v.1.15,2013-04-26 23:11:00,
2013-04-26 19:17:00,53.1,32.8,30.40,WNW,301,1.0,2.0,46,0.00,,,0.00,Wunderground v.1.15,2013-04-26 23:17:00,
2013-04-26 19:22:00,52.5,32.8,30.40,NNW,329,1.0,2.0,47,0.00,,,0.00,Wunderground v.1.15,2013-04-26 23:22:00,
2013-04-26 19:27:00,52.1,32.5,30.40,NW,304,0.0,2.0,47,0.00,,,0.00,Wunderground v.1.15,2013-04-26 23:27:00,
2013-04-26 19:32:00,51.5,31.9,30.40,WNW,290,1.0,2.0,47,0.00,,,0.00,Wunderground v.1.15,2013-04-26 23:32:00,
2013-04-26 19:37:00,51.2,32.2,30.40,West,270,1.0,2.0,48,0.00,,,0.00,Wunderground v.1.15,2013-04-26 23:37:00,
2013-04-26 19:42:00,50.8,32.8,30.40,SW,236,1.0,3.0,50,0.00,,,0.00,Wunderground v.1.15,2013-04-26 23:42:00,
2013-04-26 19:48:00,50.4,31.9,30.40,NW,304,1.0,3.0,49,0.00,,,0.00,Wunderground v.1.15,2013-04-26 23:48:00,
2013-04-26 19:53:00,50.3,32.8,30.41,NW,304,1.0,2.0,51,0.00,,,0.00,Wunderground v.1.15,2013-04-26 23:53:00,
2013-04-26 20:06:00,49.6,32.2,30.41,NW,315,1.0,2.0,51,0.00,,,0.00,Wunderground v.1.15,2013-04-27 00:06:00,
2013-04-26 20:11:00,49.3,32.4,30.41,WNW,283,1.0,2.0,52,0.00,,,0.00,Wunderground v.1.15,2013-04-27 00:11:00,
2013-04-26 20:16:00,49.1,31.7,30.41,West,277,1.0,2.0,51,0.00,,,0.00,Wunderground v.1.15,2013-04-27 00:16:00,
2013-04-26 20:21:00,48.7,31.8,30.41,NW,304,1.0,2.0,52,0.00,,,0.00,Wunderground v.1.15,2013-04-27 00:21:00,
2013-04-26 20:27:00,48.5,31.7,30.41,NW,316,1.0,2.0,52,0.00,,,0.00,Wunderground v.1.15,2013-04-27 00:27:00,
2013-04-26 20:32:00,48.3,32.4,30.41,NW,304,1.0,2.0,54,0.00,,,0.00,Wunderground v.1.15,2013-04-27 00:32:00,
2013-04-26 20:37:00,48.0,32.1,30.41,WNW,283,1.0,3.0,54,0.00,,,0.00,Wunderground v.1.15,2013-04-27 00:37:00,
2013-04-26 20:42:00,47.7,31.4,30.41,NW,308,2.0,3.0,53,0.00,,,0.00,Wunderground v.1.15,2013-04-27 00:42:00,
2013-04-26 20:47:00,47.5,31.7,30.41,WNW,295,2.0,3.0,54,0.00,,,0.00,Wunderground v.1.15,2013-04-27 00:47:00,
2013-04-26 20:52:00,47.4,31.1,30.42,NW,306,1.0,3.0,53,0.00,,,0.00,Wunderground v.1.15,2013-04-27 00:52:00,
2013-04-26 20:58:00,47.1,31.3,30.42,NW,304,1.0,3.0,54,0.00,,,0.00,Wunderground v.1.15,2013-04-27 00:58:00,
2013-04-26 21:03:00,47.0,31.2,30.42,NNW,347,1.0,2.0,54,0.00,,,0.00,Wunderground v.1.15,2013-04-27 01:03:00,
2013-04-26 21:08:00,46.8,31.5,30.42,NW,304,1.0,2.0,55,0.00,,,0.00,Wunderground v.1.15,2013-04-27 01:08:00,
2013-04-26 21:13:00,46.5,31.2,30.42,NW,323,0.0,2.0,55,0.00,,,0.00,Wunderground v.1.15,2013-04-27 01:13:00,
2013-04-26 21:18:00,46.3,31.4,30.42,West,274,0.0,2.0,56,0.00,,,0.00,Wunderground v.1.15,2013-04-27 01:18:00,
2013-04-26 21:23:00,46.1,31.7,30.42,West,276,0.0,2.0,57,0.00,,,0.00,Wunderground v.1.15,2013-04-27 01:23:00,
2013-04-26 21:28:00,45.9,31.5,30.41,WSW,257,0.0,2.0,57,0.00,,,0.00,Wunderground v.1.15,2013-04-27 01:28:00,
2013-04-26 21:33:00,45.6,32.1,30.42,WSW,257,0.0,2.0,59,0.00,,,0.00,Wunderground v.1.15,2013-04-27 01:33:00,
2013-04-26 21:39:00,45.2,32.1,30.42,WSW,257,0.0,2.0,60,0.00,,,0.00,Wunderground v.1.15,2013-04-27 01:39:00,
2013-04-26 21:44:00,44.6,32.8,30.42,WSW,257,0.0,2.0,63,0.00,,,0.00,Wunderground v.1.15,2013-04-27 01:44:00,
2013-04-26 21:49:00,44.1,32.3,30.42,WSW,257,0.0,2.0,63,0.00,,,0.00,Wunderground v.1.15,2013-04-27 01:49:00,
2013-04-26 21:54:00,43.5,32.5,30.42,WSW,257,0.0,2.0,65,0.00,,,0.00,Wunderground v.1.15,2013-04-27 01:54:00,
2013-04-26 21:59:00,43.0,32.8,30.41,WSW,257,0.0,2.0,67,0.00,,,0.00,Wunderground v.1.15,2013-04-27 01:59:00,
2013-04-26 22:05:00,42.4,32.2,30.41,WSW,257,0.0,2.0,67,0.00,,,0.00,Wunderground v.1.15,2013-04-27 02:05:00,
2013-04-26 22:10:00,42.1,32.7,30.41,WSW,257,0.0,2.0,69,0.00,,,0.00,Wunderground v.1.15,2013-04-27 02:10:00,
2013-04-26 22:15:00,41.7,32.3,30.41,WSW,257,0.0,2.0,69,0.00,,,0.00,Wunderground v.1.15,2013-04-27 02:15:00,
2013-04-26 22:20:00,41.3,32.6,30.41,WSW,257,0.0,2.0,71,0.00,,,0.00,Wunderground v.1.15,2013-04-27 02:20:00,
2013-04-26 22:25:00,41.0,33.3,30.41,WSW,257,0.0,2.0,74,0.00,,,0.00,Wunderground v.1.15,2013-04-27 02:25:00,
2013-04-26 22:31:00,40.8,32.5,30.42,WSW,257,0.0,2.0,72,0.00,,,0.00,Wunderground v.1.15,2013-04-27 02:31:00,
2013-04-26 22:36:00,40.6,32.3,30.42,WSW,257,0.0,2.0,72,0.00,,,0.00,Wunderground v.1.15,2013-04-27 02:36:00,
2013-04-26 22:41:00,40.2,31.9,30.42,WSW,257,0.0,2.0,72,0.00,,,0.00,Wunderground v.1.15,2013-04-27 02:41:00,
2013-04-26 22:46:00,40.0,33.0,30.42,WSW,257,0.0,2.0,76,0.00,,,0.00,Wunderground v.1.15,2013-04-27 02:46:00,
2013-04-26 22:51:00,39.8,33.5,30.42,WSW,257,0.0,2.0,78,0.00,,,0.00,Wunderground v.1.15,2013-04-27 02:51:00,
2013-04-26 22:56:00,39.6,33.3,30.42,WSW,257,0.0,2.0,78,0.00,,,0.00,Wunderground v.1.15,2013-04-27 02:56:00,
2013-04-26 23:01:00,39.2,33.2,30.42,WSW,257,0.0,2.0,79,0.00,,,0.00,Wunderground v.1.15,2013-04-27 03:01:00,
2013-04-26 23:06:00,38.9,33.6,30.43,WSW,257,0.0,2.0,81,0.00,,,0.00,Wunderground v.1.15,2013-04-27 03:06:00,
2013-04-26 23:12:00,38.7,33.4,30.42,WSW,257,0.0,2.0,81,0.00,,,0.00,Wunderground v.1.15,2013-04-27 03:12:00,
2013-04-26 23:17:00,38.4,33.1,30.42,WSW,257,0.0,2.0,81,0.00,,,0.00,Wunderground v.1.15,2013-04-27 03:17:00,
2013-04-26 23:22:00,38.2,33.5,30.42,WSW,257,0.0,2.0,83,0.00,,,0.00,Wunderground v.1.15,2013-04-27 03:22:00,
2013-04-26 23:27:00,37.9,33.2,30.42,WSW,257,0.0,2.0,83,0.00,,,0.00,Wunderground v.1.15,2013-04-27 03:27:00,
2013-04-26 23:33:00,37.7,33.3,30.42,WSW,257,0.0,2.0,84,0.00,,,0.00,Wunderground v.1.15,2013-04-27 03:33:00,
2013-04-26 23:39:00,37.3,33.2,30.42,WSW,257,0.0,2.0,85,0.00,,,0.00,Wunderground v.1.15,2013-04-27 03:39:00,
2013-04-26 23:44:00,37.1,33.3,30.41,WSW,257,0.0,2.0,86,0.00,,,0.00,Wunderground v.1.15,2013-04-27 03:44:00,
2013-04-26 23:49:00,36.9,33.1,30.42,WSW,257,0.0,2.0,86,0.00,,,0.00,Wunderground v.1.15,2013-04-27 03:49:00,
2013-04-26 23:55:00,36.8,33.3,30.42,WSW,257,0.0,2.0,87,0.00,,,0.00,Wunderground v.1.15,2013-04-27 03:55:00,